Cape Broyle, Canada
Current Conditions -  °F | °C
As of 7:00 PM on Thursday 25 Dec 2014 (Local Time) from CYYT Reporting Station
Overcast Overcast  
Wind Chill: 23°   Ceiling: 600
Heat Index: 36°   Visibility: 15mi
Dew Point: 34°   Wind: 30mph
Humidity: 93%   Direction: 160°SSE
Pressure: 30.02"   Gusts: 36mph
Location:  47.08°N, 52.95°W
Report Text: CYYT 252200Z 16026G31KT 15SM OVC006 02/01 A3002 RMK SF8 SLP171
Loading
Personal Weather Stations






























Interactive Weather Map New forecast layout! Learn more

10-Day Weather Forecast

Advertisements
Track Severe Weather on mobile